createdAt,value
2023-03-25T00:03:51.126Z,11.30
2023-03-25T00:08:54.823Z,10.30
2023-03-25T00:13:58.454Z,15.82
2023-03-25T00:19:03.481Z,9.20
2023-03-25T00:24:07.502Z,11.77
2023-03-25T00:29:11.147Z,9.90
2023-03-25T00:34:16.042Z,14.45
2023-03-25T00:44:22.857Z,11.43
2023-03-25T00:49:28.873Z,12.32
2023-03-25T00:54:34.408Z,12.02
2023-03-25T00:59:38.038Z,13.43
2023-03-25T01:04:45.770Z,10.57
2023-03-25T01:09:49.484Z,12.48
2023-03-25T01:14:52.935Z,15.10
2023-03-25T01:19:58.170Z,17.33
2023-03-25T01:25:02.104Z,15.88
2023-03-25T01:30:07.276Z,14.57
2023-03-25T01:35:12.427Z,12.82
2023-03-25T01:40:20.825Z,15.80
2023-03-25T01:45:27.681Z,12.88
2023-03-25T01:50:33.502Z,11.10
2023-03-25T01:55:40.303Z,8.40
2023-03-25T02:00:45.890Z,10.18
2023-03-25T02:05:57.263Z,10.57
2023-03-25T02:11:00.880Z,11.13
2023-03-25T02:16:21.747Z,9.25
2023-03-25T02:22:26.184Z,8.82
2023-03-25T02:27:46.182Z,10.60
2023-03-25T02:33:22.730Z,12.30
2023-03-25T02:38:40.647Z,8.63
2023-03-25T02:43:51.892Z,9.05
2023-03-25T02:49:00.393Z,10.25
2023-03-25T02:54:09.012Z,10.43
2023-03-25T02:59:15.428Z,8.40
2023-03-25T03:04:18.954Z,6.10
2023-03-25T03:09:32.878Z,9.98
2023-03-25T03:14:57.579Z,6.03
2023-03-25T03:20:06.809Z,8.85
2023-03-25T03:25:23.131Z,9.75
2023-03-25T03:30:32.740Z,7.28
2023-03-25T03:35:39.402Z,9.55
2023-03-25T03:40:49.038Z,7.88
2023-03-25T03:45:58.170Z,7.07
2023-03-25T03:51:07.999Z,7.68
2023-03-25T03:56:19.406Z,13.60
2023-03-25T04:01:30.783Z,9.57
2023-03-25T04:06:41.893Z,12.68
2023-03-25T04:11:51.853Z,16.75
2023-03-25T04:16:56.819Z,16.55
2023-03-25T04:22:00.440Z,14.27
2023-03-25T04:27:05.525Z,11.70
2023-03-25T04:32:12.145Z,11.10
2023-03-25T04:37:16.249Z,10.95
2023-03-25T04:42:21.216Z,10.43
2023-03-25T04:52:29.566Z,7.35
2023-03-25T04:57:34.477Z,7.18
2023-03-25T05:07:41.670Z,7.65
2023-03-25T05:12:46.611Z,5.45
2023-03-25T05:22:53.748Z,6.25
2023-03-25T05:27:58.601Z,5.27
2023-03-25T05:38:05.889Z,5.70
2023-03-25T05:43:10.754Z,6.40
2023-03-25T05:53:17.456Z,6.35
2023-03-25T05:58:22.279Z,5.85
2023-03-25T06:03:26.277Z,8.80
2023-03-25T06:08:31.674Z,5.45
2023-03-25T06:13:38.334Z,7.47
2023-03-25T06:18:41.835Z,6.20
2023-03-25T06:23:45.301Z,8.15
2023-03-25T06:28:50.165Z,7.85
2023-03-25T06:38:58.549Z,8.70
2023-03-25T06:44:03.442Z,8.60
2023-03-25T06:54:10.191Z,10.05
2023-03-25T06:59:15.069Z,11.90
2023-03-25T07:09:23.153Z,14.80
2023-03-25T07:14:28.309Z,12.63
2023-03-25T07:19:50.632Z,13.70
2023-03-25T07:24:54.044Z,13.13
2023-03-25T07:30:04.911Z,14.60
2023-03-25T07:35:09.623Z,17.63
2023-03-25T07:40:13.986Z,14.65
2023-03-25T07:45:19.072Z,15.23
2023-03-25T07:50:26.012Z,16.70
2023-03-25T07:55:29.608Z,16.45
2023-03-25T08:00:34.902Z,13.85
2023-03-25T08:05:38.382Z,21.02
2023-03-25T08:10:44.236Z,16.30
2023-03-25T08:21:28.031Z,16.33
2023-03-25T08:26:32.090Z,15.93
2023-03-25T08:31:38.884Z,17.17
2023-03-25T08:36:42.449Z,18.77
2023-03-25T08:41:46.283Z,15.80
2023-03-25T08:47:27.190Z,17.40
2023-03-25T08:52:49.084Z,15.55
2023-03-25T08:57:52.562Z,19.08
2023-03-25T09:02:59.165Z,19.00
2023-03-25T09:08:04.322Z,14.27
2023-03-25T09:13:07.945Z,15.13
2023-03-25T09:18:12.882Z,15.25
2023-03-25T09:28:37.904Z,17.65
2023-03-25T09:33:42.912Z,13.40
2023-03-25T09:38:46.812Z,16.27
2023-03-25T09:44:02.388Z,14.17
2023-03-25T09:49:11.129Z,15.38
2023-03-25T09:59:47.505Z,15.52
2023-03-25T10:05:21.472Z,16.95
2023-03-25T10:10:30.535Z,16.13
2023-03-25T10:15:41.457Z,17.88
2023-03-25T10:21:01.802Z,16.40
2023-03-25T10:26:28.258Z,15.40
2023-03-25T10:31:37.234Z,15.35
2023-03-25T10:36:49.366Z,16.27
2023-03-25T10:41:57.980Z,16.65
2023-03-25T10:47:06.216Z,17.70
2023-03-25T10:52:11.741Z,16.67
2023-03-25T10:57:21.746Z,14.73
2023-03-25T11:02:28.232Z,17.00
2023-03-25T11:07:36.714Z,14.52
2023-03-25T11:12:43.815Z,17.88
2023-03-25T11:17:49.312Z,13.35
2023-03-25T11:23:16.393Z,14.77
2023-03-25T11:28:40.809Z,14.77
2023-03-25T11:33:46.382Z,14.40
2023-03-25T11:38:58.178Z,15.43
2023-03-25T11:44:02.974Z,16.48
2023-03-25T11:54:34.680Z,14.38
2023-03-25T11:59:41.381Z,15.05
2023-03-25T12:04:58.200Z,12.13
2023-03-25T12:10:07.728Z,11.63
2023-03-25T12:21:25.677Z,15.02
2023-03-25T12:26:54.132Z,13.00
2023-03-25T12:32:12.263Z,12.60
2023-03-25T12:37:28.360Z,12.35
2023-03-25T12:42:42.428Z,11.13
2023-03-25T12:47:50.464Z,15.77
2023-03-25T12:53:00.028Z,15.93
2023-03-25T12:58:32.608Z,14.52
2023-03-25T13:04:14.377Z,14.52
2023-03-25T13:09:25.643Z,12.95
2023-03-25T13:14:34.625Z,16.58
2023-03-25T13:19:42.801Z,16.05
2023-03-25T13:24:52.756Z,14.63
2023-03-25T13:30:06.200Z,15.35
2023-03-25T13:35:16.793Z,17.85
2023-03-25T13:40:27.879Z,12.88
2023-03-25T13:45:41.149Z,14.95
2023-03-25T13:50:44.774Z,16.80
2023-03-25T13:55:55.528Z,16.08
2023-03-25T14:01:18.115Z,17.08
2023-03-25T14:06:45.341Z,19.08
2023-03-25T14:11:54.253Z,16.50
2023-03-25T14:17:01.519Z,16.05
2023-03-25T14:22:27.595Z,18.95
2023-03-25T14:27:34.283Z,16.52
2023-03-25T14:32:40.426Z,19.30
2023-03-25T14:37:44.055Z,18.17
2023-03-25T14:43:00.577Z,18.42
2023-03-25T14:48:26.167Z,19.50
2023-03-25T14:53:48.433Z,17.95
2023-03-25T15:04:29.445Z,19.90
2023-03-25T15:09:33.477Z,19.50
2023-03-25T15:14:38.576Z,17.77
2023-03-25T15:20:29.342Z,23.88
2023-03-25T15:25:54.881Z,20.52
2023-03-25T15:31:11.672Z,20.20
2023-03-25T15:36:35.567Z,19.13
2023-03-25T15:42:16.253Z,19.40
2023-03-25T15:47:39.146Z,20.52
2023-03-25T15:53:04.751Z,16.92
2023-03-25T15:58:23.275Z,17.75
2023-03-25T16:03:30.809Z,22.63
2023-03-25T16:08:38.630Z,21.02
2023-03-25T16:13:43.779Z,18.40
2023-03-25T16:19:06.697Z,22.00
2023-03-25T16:24:34.248Z,19.27
2023-03-25T16:29:41.439Z,21.67
2023-03-25T16:34:44.921Z,19.63
2023-03-25T16:39:53.556Z,19.52
2023-03-25T16:44:58.606Z,19.63
2023-03-25T16:50:04.758Z,19.58
2023-03-25T16:55:30.121Z,16.33
2023-03-25T17:06:02.551Z,16.30
2023-03-25T17:11:09.285Z,17.60
2023-03-25T17:16:32.962Z,17.33
2023-03-25T17:22:13.148Z,18.52
2023-03-25T17:27:36.317Z,18.50
2023-03-25T17:32:45.068Z,16.63
2023-03-25T17:37:50.750Z,19.33
2023-03-25T17:42:54.688Z,17.67
2023-03-25T17:47:59.716Z,20.30
2023-03-25T17:53:03.896Z,19.35
2023-03-25T18:03:48.996Z,21.02
2023-03-25T18:08:53.175Z,20.73
2023-03-25T18:13:56.621Z,20.23
2023-03-25T18:19:01.617Z,24.13
2023-03-25T18:24:05.353Z,24.75
2023-03-25T18:29:12.955Z,23.15
2023-03-25T18:34:18.297Z,22.15
2023-03-25T18:39:24.379Z,22.45
2023-03-25T18:44:30.858Z,27.75
2023-03-25T18:49:35.936Z,24.00
2023-03-25T19:00:14.391Z,25.48
2023-03-25T19:05:19.782Z,23.65
2023-03-25T19:10:25.375Z,26.70
2023-03-25T19:15:47.538Z,26.35
2023-03-25T19:20:52.632Z,27.13
2023-03-25T19:31:19.224Z,24.33
2023-03-25T19:36:25.880Z,28.10
2023-03-25T19:41:29.409Z,27.63
2023-03-25T19:46:51.301Z,27.02
2023-03-25T19:52:14.667Z,25.67
2023-03-25T20:02:39.168Z,24.17
2023-03-25T20:07:45.838Z,25.20
2023-03-25T20:12:50.088Z,24.50
2023-03-25T20:17:55.646Z,22.40
2023-03-25T20:23:17.666Z,23.67
2023-03-25T20:28:21.149Z,23.98
2023-03-25T20:33:27.505Z,23.35
2023-03-25T20:38:32.408Z,24.20
2023-03-25T20:48:56.885Z,21.40
2023-03-25T20:54:01.774Z,21.55
2023-03-25T21:04:09.978Z,34.08
2023-03-25T21:09:15.041Z,51.50
2023-03-25T21:14:19.403Z,60.05
2023-03-25T21:19:22.997Z,105.55
2023-03-25T21:29:48.799Z,169.40
2023-03-25T21:34:52.516Z,122.18
2023-03-25T21:39:58.379Z,115.53
2023-03-25T21:45:02.706Z,133.93
2023-03-25T21:50:27.014Z,146.55
2023-03-25T21:55:50.600Z,207.07
2023-03-25T22:00:58.087Z,154.38
2023-03-25T22:06:04.386Z,156.73
2023-03-25T22:11:11.200Z,200.75
2023-03-25T22:16:16.876Z,251.32
2023-03-25T22:21:22.202Z,169.40
2023-03-25T22:26:28.404Z,87.53
2023-03-25T22:31:39.564Z,107.43
2023-03-25T22:36:49.564Z,84.22
2023-03-25T22:41:57.912Z,128.88
2023-03-25T22:47:21.164Z,144.23
2023-03-25T22:58:04.808Z,112.50
2023-03-25T23:03:11.253Z,156.65
2023-03-25T23:08:14.776Z,109.40
2023-03-25T23:13:19.883Z,208.60
2023-03-25T23:18:42.001Z,171.77
2023-03-25T23:24:04.737Z,46.88
2023-03-25T23:29:12.465Z,66.53
2023-03-25T23:34:17.254Z,64.60
2023-03-25T23:39:23.000Z,111.60
2023-03-25T23:44:27.924Z,53.38
